weather.gov     
National Weather Service

Terminal Aerodrome Forecast
NWS Homepage
This page is being discontinued on March 12, 2014.
The same data is available at this site. Please update your bookmarks.
Thank you, and we apologize for the inconvenience.
Please send an email to SR-SRH.Webmaster@noaa.gov with any concerns.


Current Version
Previous Version:    01  02  03  04  05  06  07  08  09  10  11  12  13  14  15  16  17  18  19  20  21  22  23  24  25  26  27  28  29  30  
   31  32  33  34  35  36  37  38  39  40  41  42  43  44  45  46  47  
[Printable]
978
FTUS43 KOAX 291725
TAFOFK
TAF
KOFK 291725Z 2918/3018 VRB05KT P6SM SCT007 OVC025
      TEMPO 2918/2921 3SM TSRA OVC015CB
     FM292100 33007KT P6SM OVC060
     FM300100 34005KT P6SM BKN100
     FM300900 30003KT 4SM BR OVC015
      TEMPO 3010/3014 1SM BR OVC004
     FM301500 30005KT P6SM BKN250=


978
FTUS43 KOAX 291725
TAFOFK
TAF
KOFK 291725Z 2918/3018 VRB05KT P6SM SCT007 OVC025
      TEMPO 2918/2921 3SM TSRA OVC015CB
     FM292100 33007KT P6SM OVC060
     FM300100 34005KT P6SM BKN100
     FM300900 30003KT 4SM BR OVC015
      TEMPO 3010/3014 1SM BR OVC004
     FM301500 30005KT P6SM BKN250=




U.S. Dept. of Commerce
NOAA National Weather Service
1325 East West Highway
Silver Spring, MD 20910
E-mail: w-nws.webmaster@noaa.gov
Page last modified: May 16, 2007
NATIONAL WEATHER SERVICE: for Safety, for Work, for Fun - FOR LIFE